Time;durP1;ratioP1;P1;durP2;ratioP2;P2;SDS_P1;SDS_P2;PMS_P1;PMS_P2;Temp;Humidity;BMP_temperature;BMP_pressure;BME280_temperature;BME280_humidity;BME280_pressure;Samples;Min_cycle;Max_cycle;Signal;HPM_P1;HPM_P2
2023/10/18 00:00:59;;;;;;;31.02;28.17;;;4.50;99.90;;;;;;6264660;22;20019;-91
2023/10/18 00:03:32;;;;;;;38.78;34.78;;;5.00;99.90;;;;;;6264959;22;20014;-91
2023/10/18 00:06:11;;;;;;;31.38;27.80;;;4.90;99.90;;;;;;6264299;22;20008;-90
2023/10/18 00:08:41;;;;;;;30.52;26.48;;;4.80;99.90;;;;;;6264063;22;20022;-89
2023/10/18 00:11:07;;;;;;;29.98;27.02;;;4.90;99.90;;;;;;6264262;22;20012;-91
2023/10/18 00:13:33;;;;;;;34.45;31.40;;;3.50;99.90;;;;;;6264409;22;20046;-90
2023/10/18 00:16:07;;;;;;;39.53;32.20;;;4.80;99.90;;;;;;6265039;22;20099;-90
2023/10/18 00:18:34;;;;;;;35.08;31.60;;;5.00;99.90;;;;;;6263441;22;20042;-90
2023/10/18 00:21:06;;;;;;;34.30;29.40;;;4.10;99.90;;;;;;6264130;22;20041;-90
2023/10/18 00:23:33;;;;;;;30.95;27.70;;;5.00;99.90;;;;;;6265374;22;20007;-88
2023/10/18 00:26:07;;;;;;;33.03;29.67;;;3.70;99.90;;;;;;6264465;22;20090;-90
2023/10/18 00:28:36;;;;;;;38.00;30.40;;;3.80;99.90;;;;;;6265127;22;20011;-90
2023/10/18 00:31:12;;;;;;;36.28;31.50;;;5.20;99.90;;;;;;6264895;22;20023;-90
2023/10/18 00:33:39;;;;;;;34.50;30.88;;;3.80;99.90;;;;;;6264847;22;20015;-90
2023/10/18 00:36:08;;;;;;;37.10;30.63;;;3.50;99.90;;;;;;6264906;22;20448;-91
2023/10/18 00:38:33;;;;;;;34.72;30.45;;;3.70;99.90;;;;;;6264328;22;20030;-91
2023/10/18 00:40:59;;;;;;;36.60;32.85;;;4.80;99.90;;;;;;6265541;22;20003;-91
2023/10/18 00:43:27;;;;;;;35.33;31.20;;;5.20;99.90;;;;;;6265635;22;20126;-90
2023/10/18 00:45:54;;;;;;;35.03;31.35;;;3.80;99.90;;;;;;6264479;22;20011;-90
2023/10/18 00:48:26;;;;;;;36.90;32.70;;;4.90;99.90;;;;;;6265172;22;20027;-91
2023/10/18 00:50:54;;;;;;;33.80;29.23;;;3.70;99.90;;;;;;6265451;22;20080;-90
2023/10/18 00:53:30;;;;;;;39.33;32.97;;;4.20;99.90;;;;;;6263665;22;20015;-91
2023/10/18 00:55:57;;;;;;;40.60;36.13;;;4.80;99.90;;;;;;6265808;22;20206;-90
2023/10/18 00:58:27;;;;;;;38.42;32.80;;;5.10;99.90;;;;;;6266545;22;20015;-91
2023/10/18 01:00:56;;;;;;;37.10;33.15;;;4.90;99.90;;;;;;6266201;22;20008;-90
2023/10/18 01:03:36;;;;;;;39.10;30.95;;;4.50;99.90;;;;;;6266991;22;20023;-91
2023/10/18 01:06:08;;;;;;;34.97;30.45;;;4.70;99.90;;;;;;6267635;22;20003;-89
2023/10/18 01:08:56;;;;;;;39.53;31.50;;;4.10;99.90;;;;;;6268359;22;20034;-91
2023/10/18 01:11:27;;;;;;;40.50;36.08;;;3.50;99.90;;;;;;6265295;22;20305;-91
2023/10/18 01:13:55;;;;;;;51.05;39.60;;;3.40;99.90;;;;;;6267601;22;20022;-91
2023/10/18 01:16:21;;;;;;;47.95;35.33;;;3.40;99.90;;;;;;6266036;22;20007;-90
2023/10/18 01:18:52;;;;;;;49.72;40.55;;;3.50;99.90;;;;;;6265650;22;20045;-89
2023/10/18 01:21:19;;;;;;;57.65;43.33;;;4.80;99.90;;;;;;6265149;22;20012;-90
2023/10/18 01:23:53;;;;;;;68.93;50.72;;;3.60;99.90;;;;;;6265860;22;20374;-91
2023/10/18 01:26:21;;;;;;;58.58;44.83;;;4.80;99.90;;;;;;6264085;22;20007;-90
2023/10/18 01:28:47;;;;;;;66.05;43.22;;;4.30;99.90;;;;;;6264061;22;20031;-90
2023/10/18 01:31:13;;;;;;;54.83;45.47;;;4.30;99.90;;;;;;6263987;22;20026;-89
2023/10/18 01:33:43;;;;;;;55.83;43.08;;;4.50;99.90;;;;;;6265561;22;20007;-87
2023/10/18 01:36:16;;;;;;;58.55;42.00;;;4.80;99.90;;;;;;6264767;22;20012;-90
2023/10/18 01:38:46;;;;;;;59.83;40.05;;;5.20;99.90;;;;;;6290717;22;20015;-90
2023/10/18 01:41:34;;;;;;;50.22;41.40;;;4.60;99.90;;;;;;6264221;22;20022;-90
2023/10/18 01:44:07;;;;;;;52.03;39.42;;;5.10;99.90;;;;;;6264924;22;20011;-89
2023/10/18 01:46:33;;;;;;;;;;;3.60;99.90;;;;;;6265551;22;20225;-90
2023/10/18 01:49:00;;;;;;;55.47;37.92;;;3.80;99.90;;;;;;6263772;22;19917;-89
2023/10/18 01:51:27;;;;;;;54.60;41.97;;;5.30;99.90;;;;;;6263446;22;20020;-89
2023/10/18 01:53:55;;;;;;;59.42;42.08;;;5.20;99.90;;;;;;6264386;22;20023;-88
2023/10/18 01:56:21;;;;;;;60.83;43.40;;;5.20;99.90;;;;;;6263938;22;20011;-89
2023/10/18 01:58:50;;;;;;;59.00;41.65;;;3.80;99.90;;;;;;6264337;22;20023;-90
2023/10/18 02:01:16;;;;;;;52.80;42.10;;;5.20;99.90;;;;;;6264531;22;20011;-91
2023/10/18 02:03:44;;;;;;;58.40;42.88;;;4.80;99.90;;;;;;6264903;22;20018;-89
2023/10/18 02:06:14;;;;;;;54.72;45.97;;;5.00;99.90;;;;;;6264476;22;20039;-89
2023/10/18 02:08:40;;;;;;;60.42;48.13;;;4.70;99.90;;;;;;6264490;22;20022;-89
2023/10/18 02:11:09;;;;;;;59.63;43.40;;;5.10;99.90;;;;;;6265005;22;20045;-89
2023/10/18 02:13:44;;;;;;;57.60;48.58;;;4.30;99.90;;;;;;6265123;22;20033;-90
2023/10/18 02:16:19;;;;;;;60.60;42.90;;;4.20;99.90;;;;;;6262032;22;20049;-89
2023/10/18 02:18:49;;;;;;;64.15;45.63;;;3.90;99.90;;;;;;6264452;22;20015;-90
2023/10/18 02:21:15;;;;;;;63.03;48.25;;;5.30;99.90;;;;;;6265062;22;20015;-90
2023/10/18 02:23:41;;;;;;;64.75;43.63;;;4.90;99.90;;;;;;6263021;22;20015;-89
2023/10/18 02:26:22;;;;;;;58.45;41.20;;;5.10;99.90;;;;;;6263493;22;20029;-89
2023/10/18 02:28:48;;;;;;;57.35;42.90;;;4.60;99.90;;;;;;6263646;22;20007;-89
2023/10/18 02:31:21;;;;;;;63.45;51.22;;;4.80;99.90;;;;;;6263405;22;20026;-90
2023/10/18 02:33:53;;;;;;;54.28;40.67;;;2.90;99.90;;;;;;6263865;22;20045;-90
2023/10/18 02:36:23;;;;;;;62.83;49.95;;;5.00;99.90;;;;;;6263252;22;20022;-90
2023/10/18 02:38:49;;;;;;;61.55;44.33;;;3.90;99.90;;;;;;6263646;22;20019;-90
2023/10/18 02:41:19;;;;;;;54.67;46.78;;;4.80;99.90;;;;;;6264210;22;20390;-91
2023/10/18 02:43:54;;;;;;;58.50;47.33;;;3.90;99.90;;;;;;6263864;22;20561;-91
2023/10/18 02:46:23;;;;;;;66.63;46.45;;;5.00;99.90;;;;;;6263155;22;20442;-91
2023/10/18 02:48:52;;;;;;;60.15;45.33;;;5.10;99.90;;;;;;6263599;22;20017;-91
2023/10/18 02:51:24;;;;;;;56.50;47.05;;;5.10;99.90;;;;;;6263822;22;20021;-90
2023/10/18 02:53:51;;;;;;;66.78;57.03;;;4.70;99.90;;;;;;6262714;22;20016;-90
2023/10/18 02:56:17;;;;;;;64.93;43.70;;;4.70;99.90;;;;;;6263927;22;20053;-90
2023/10/18 02:58:46;;;;;;;67.68;45.13;;;4.90;99.90;;;;;;6263148;22;20015;-91
2023/10/18 03:01:14;;;;;;;61.60;46.30;;;5.00;99.90;;;;;;6263076;22;20047;-91
2023/10/18 03:03:40;;;;;;;61.47;44.60;;;4.90;99.90;;;;;;6263856;22;20090;-89
2023/10/18 03:06:12;;;;;;;62.20;41.55;;;3.70;99.90;;;;;;6263092;22;20049;-89
2023/10/18 03:08:42;;;;;;;59.22;47.97;;;5.10;99.90;;;;;;6262640;22;20012;-90
2023/10/18 03:11:11;;;;;;;64.43;46.22;;;3.80;99.90;;;;;;6263949;22;20050;-89
2023/10/18 03:13:38;;;;;;;59.40;45.50;;;4.20;99.90;;;;;;6263482;22;20042;-90
2023/10/18 03:16:15;;;;;;;57.38;42.83;;;4.90;99.90;;;;;;6263696;22;20068;-90
2023/10/18 03:18:44;;;;;;;57.55;46.35;;;3.20;99.90;;;;;;6263438;22;20264;-90
2023/10/18 03:21:20;;;;;;;60.85;48.05;;;4.70;99.90;;;;;;6263324;22;20011;-90
2023/10/18 03:23:52;;;;;;;61.75;46.58;;;5.10;99.90;;;;;;6263445;22;20008;-90
2023/10/18 03:26:22;;;;;;;63.50;49.58;;;5.20;99.90;;;;;;6263690;22;20015;-90
2023/10/18 03:28:51;;;;;;;57.80;45.47;;;5.50;99.90;;;;;;6263428;22;20333;-90
2023/10/18 03:31:40;;;;;;;55.85;46.80;;;4.80;99.90;;;;;;6262868;22;20011;-90
2023/10/18 03:34:03;;;;;;;59.67;47.70;;;4.00;99.90;;;;;;6287243;22;20030;-90
2023/10/18 03:36:32;;;;;;;59.60;49.85;;;5.00;99.90;;;;;;6262730;22;20094;-89
2023/10/18 03:39:10;;;;;;;57.78;45.60;;;4.70;99.90;;;;;;6262425;22;20064;-90
2023/10/18 03:41:40;;;;;;;55.90;42.55;;;5.10;99.90;;;;;;6262305;22;20015;-89
2023/10/18 03:44:13;;;;;;;59.05;45.08;;;5.00;99.90;;;;;;6262127;22;20011;-90
2023/10/18 03:46:48;;;;;;;52.63;43.13;;;4.50;99.90;;;;;;6263639;22;20050;-90
2023/10/18 03:49:52;;;;;;;58.08;48.70;;;3.90;99.90;;;;;;6264117;22;20011;-90
2023/10/18 03:57:37;;;;;;;62.88;48.75;;;5.50;99.90;;;;;;6300617;22;20029;-91
2023/10/18 04:03:12;;;;;;;67.45;49.70;;;4.00;99.90;;;;;;6286171;22;20066;-90
2023/10/18 04:05:45;;;;;;;67.32;47.90;;;3.90;99.90;;;;;;6278086;22;20429;-94
2023/10/18 04:08:16;;;;;;;61.67;44.22;;;3.90;99.90;;;;;;6279150;22;20011;-92
2023/10/18 04:10:42;;;;;;;60.80;47.53;;;3.90;99.90;;;;;;6265281;22;20011;-94
2023/10/18 04:13:14;;;;;;;58.50;43.90;;;4.60;99.90;;;;;;6256419;22;20027;-93
2023/10/18 04:15:45;;;;;;;59.45;47.55;;;3.90;99.90;;;;;;6255124;22;20011;-94
2023/10/18 04:18:12;;;;;;;71.75;49.92;;;4.90;99.90;;;;;;6254849;22;20063;-93
2023/10/18 04:20:42;;;;;;;64.65;48.72;;;4.10;99.90;;;;;;6254694;22;20071;-94
2023/10/18 04:23:21;;;;;;;61.85;46.35;;;3.20;99.90;;;;;;6256137;22;20007;-93
2023/10/18 04:26:10;;;;;;;64.10;46.03;;;5.30;99.90;;;;;;6254044;22;20012;-92
2023/10/18 04:28:39;;;;;;;66.00;51.03;;;4.60;99.90;;;;;;6253808;22;20011;-91
2023/10/18 04:31:14;;;;;;;65.43;48.40;;;5.20;99.90;;;;;;6256378;22;20060;-92
2023/10/18 04:33:41;;;;;;;66.55;47.92;;;4.80;99.90;;;;;;6255035;22;20455;-91
2023/10/18 04:36:20;;;;;;;73.47;53.22;;;3.80;99.90;;;;;;6256003;22;20026;-91
2023/10/18 04:38:46;;;;;;;80.57;58.42;;;3.80;99.90;;;;;;6256930;22;20026;-90
2023/10/18 04:46:30;;;;;;;70.68;47.08;;;3.80;99.90;;;;;;6281006;22;20442;-91
2023/10/18 04:51:33;;;;;;;67.30;51.35;;;3.80;99.90;;;;;;6280976;22;20384;-93
2023/10/18 04:54:11;;;;;;;74.25;51.05;;;3.80;99.90;;;;;;6255450;22;20015;-91
2023/10/18 04:56:38;;;;;;;73.07;54.03;;;3.90;99.90;;;;;;6256109;22;20017;-94
2023/10/18 04:59:26;;;;;;;66.93;54.85;;;5.20;99.90;;;;;;6255054;22;20064;-93
2023/10/18 05:04:18;;;;;;;68.53;51.80;;;3.70;99.90;;;;;;6289278;22;20389;-91
2023/10/18 05:06:54;;;;;;;69.30;56.08;;;4.70;99.90;;;;;;6258545;22;20007;-92
2023/10/18 05:09:31;;;;;;;78.43;52.20;;;4.70;99.90;;;;;;6256495;22;20053;-92
2023/10/18 05:12:07;;;;;;;71.28;49.58;;;3.60;99.90;;;;;;6263824;22;20015;-92
2023/10/18 05:14:42;;;;;;;76.13;50.72;;;4.90;99.90;;;;;;6266018;22;20015;-90
2023/10/18 05:17:16;;;;;;;76.63;62.55;;;3.80;99.90;;;;;;6265338;22;20100;-90
2023/10/18 05:19:42;;;;;;;66.35;49.80;;;4.50;99.90;;;;;;6264885;22;20007;-91
2023/10/18 05:22:23;;;;;;;72.80;51.55;;;3.70;99.90;;;;;;6264203;22;20015;-92
2023/10/18 05:27:38;;;;;;;71.13;53.75;;;4.90;99.90;;;;;;6290187;22;20019;-91
2023/10/18 05:30:25;;;;;;;78.40;49.13;;;3.80;99.90;;;;;;6264032;22;20050;-91
2023/10/18 05:35:28;;;;;;;78.40;50.28;;;3.80;99.90;;;;;;6292071;22;20049;-91
2023/10/18 05:43:12;;;;;;;69.60;50.60;;;3.70;99.90;;;;;;6291285;22;20011;-91
2023/10/18 05:45:41;;;;;;;63.83;46.75;;;4.80;99.90;;;;;;6255121;22;20097;-91
2023/10/18 05:48:13;;;;;;;65.28;48.00;;;5.30;99.90;;;;;;6256350;22;20011;-91
2023/10/18 05:50:39;;;;;;;69.53;53.10;;;4.80;99.90;;;;;;6258138;22;20042;-91
2023/10/18 05:53:11;;;;;;;76.93;52.53;;;4.60;99.90;;;;;;6256087;22;20337;-91
2023/10/18 05:55:40;;;;;;;68.82;52.17;;;3.90;99.90;;;;;;6256123;22;20036;-89
2023/10/18 05:58:05;;;;;;;70.40;50.25;;;4.80;99.90;;;;;;6255765;22;20093;-91
2023/10/18 06:00:35;;;;;;;73.35;48.25;;;4.80;99.90;;;;;;6256205;22;20011;-93
2023/10/18 06:03:01;;;;;;;68.80;51.35;;;5.20;99.90;;;;;;6256509;22;20011;-91
2023/10/18 06:05:36;;;;;;;75.18;57.85;;;3.50;99.90;;;;;;6255849;22;20011;-91
2023/10/18 06:08:02;;;;;;;75.13;51.75;;;3.90;99.90;;;;;;6256191;22;20011;-91
2023/10/18 06:10:27;;;;;;;68.55;49.35;;;3.90;99.90;;;;;;6256891;22;20034;-91
2023/10/18 06:12:57;;;;;;;67.65;47.33;;;3.80;99.90;;;;;;6257438;22;20098;-90
2023/10/18 06:15:44;;;;;;;60.50;43.47;;;4.90;99.90;;;;;;6256447;22;20092;-91
2023/10/18 06:18:17;;;;;;;71.97;53.08;;;5.00;99.90;;;;;;6283123;22;20019;-90
2023/10/18 06:20:45;;;;;;;67.63;50.60;;;4.60;99.90;;;;;;6265442;22;20011;-89
2023/10/18 06:25:57;;;;;;;66.82;45.95;;;4.10;99.90;;;;;;6302719;22;20016;-90
2023/10/18 06:28:26;;;;;;;65.28;48.65;;;5.00;99.90;;;;;;6277009;22;20046;-91
2023/10/18 06:30:54;;;;;;;70.25;52.70;;;4.90;99.90;;;;;;6277734;22;20062;-90
2023/10/18 06:33:21;;;;;;;70.75;50.55;;;4.90;99.90;;;;;;6278179;22;20039;-90
2023/10/18 06:35:53;;;;;;;67.93;54.80;;;5.10;99.90;;;;;;6251310;22;20011;-90
2023/10/18 06:38:23;;;;;;;64.00;48.15;;;4.60;99.90;;;;;;6278178;22;20102;-91
2023/10/18 06:41:00;;;;;;;75.60;53.40;;;3.60;99.90;;;;;;6277642;22;20015;-89
2023/10/18 06:43:29;;;;;;;69.15;51.22;;;4.00;99.90;;;;;;6276921;22;20030;-89
2023/10/18 06:45:55;;;;;;;66.28;48.40;;;4.00;99.90;;;;;;6300921;22;20033;-90
2023/10/18 06:48:26;;;;;;;70.60;51.15;;;5.10;99.90;;;;;;6275517;22;20015;-89
2023/10/18 06:50:55;;;;;;;62.28;47.45;;;5.10;99.90;;;;;;6276036;22;20015;-88
2023/10/18 06:53:21;;;;;;;64.35;50.33;;;4.90;99.90;;;;;;6275711;22;20093;-90
2023/10/18 06:55:57;;;;;;;64.95;48.47;;;5.40;99.90;;;;;;6275591;22;20022;-90
2023/10/18 07:00:55;;;;;;;69.53;54.30;;;5.60;99.90;;;;;;6299635;22;20069;-89
2023/10/18 07:03:25;;;;;;;64.30;47.75;;;5.30;99.90;;;;;;6274115;22;20011;-89
2023/10/18 07:05:52;;;;;;;57.38;48.33;;;5.30;99.90;;;;;;6274102;22;20063;-89
2023/10/18 07:08:19;;;;;;;68.05;55.47;;;5.20;99.90;;;;;;6275297;22;19998;-89
2023/10/18 07:10:57;;;;;;;62.20;51.95;;;4.90;99.90;;;;;;6276193;22;20022;-90
2023/10/18 07:13:42;;;;;;;83.40;51.72;;;4.50;99.90;;;;;;6277818;22;20094;-91
2023/10/18 07:21:38;;;;;;;60.03;49.22;;;5.90;99.90;;;;;;6303345;22;20270;-90
2023/10/18 07:24:10;;;;;;;60.78;48.13;;;5.90;99.90;;;;;;6277263;22;20015;-88
2023/10/18 07:26:37;;;;;;;59.00;47.40;;;4.80;99.90;;;;;;6255895;22;20007;-91
2023/10/18 07:29:09;;;;;;;64.50;53.47;;;5.80;99.90;;;;;;6278765;22;20018;-89
2023/10/18 07:31:38;;;;;;;56.05;49.35;;;4.90;99.90;;;;;;6277509;22;20030;-88
2023/10/18 07:34:08;;;;;;;59.53;51.05;;;5.80;99.90;;;;;;6276568;22;20059;-90
2023/10/18 07:36:38;;;;;;;57.72;50.03;;;5.60;99.90;;;;;;6275793;22;20026;-90
2023/10/18 07:39:11;;;;;;;58.83;49.42;;;6.50;99.90;;;;;;6276631;22;20023;-89
2023/10/18 07:41:37;;;;;;;50.55;42.60;;;5.30;99.90;;;;;;6276615;22;20059;-91
2023/10/18 07:44:07;;;;;;;58.60;52.42;;;6.40;99.90;;;;;;6276463;22;20026;-91
2023/10/18 07:46:34;;;;;;;55.95;47.38;;;5.40;99.90;;;;;;6278622;22;20011;-91
2023/10/18 07:49:04;;;;;;;83.63;75.65;;;6.00;99.90;;;;;;6278718;22;20045;-91
2023/10/18 07:51:34;;;;;;;86.05;78.05;;;6.10;99.90;;;;;;6278373;22;20019;-91
2023/10/18 07:54:00;;;;;;;67.22;61.10;;;6.50;99.90;;;;;;6279200;22;19999;-90
2023/10/18 07:56:29;;;;;;;51.97;44.20;;;6.10;99.90;;;;;;6278650;22;20051;-90
2023/10/18 07:59:27;;;;;;;63.83;57.25;;;5.70;99.90;;;;;;6278813;22;19995;-91
2023/10/18 08:04:47;;;;;;;52.80;46.88;;;5.90;99.90;;;;;;6304153;22;20034;-90
2023/10/18 08:07:19;;;;;;;50.75;45.45;;;6.50;99.90;;;;;;6278283;22;20062;-91
2023/10/18 08:09:48;;;;;;;48.17;40.40;;;6.70;99.90;;;;;;6278329;22;20025;-90
2023/10/18 08:14:50;;;;;;;52.25;47.20;;;6.50;99.90;;;;;;6302886;22;20054;-91
2023/10/18 08:22:46;;;;;;;53.90;48.85;;;6.30;99.90;;;;;;6303165;22;20039;-89
2023/10/18 08:25:23;;;;;;;65.10;59.05;;;7.60;99.90;;;;;;6277915;22;20060;-90
2023/10/18 08:27:52;;;;;;;62.78;57.25;;;6.50;99.90;;;;;;6277109;22;20063;-90
2023/10/18 08:30:38;;;;;;;46.42;41.72;;;6.60;99.90;;;;;;6277229;22;20098;-90
2023/10/18 08:33:07;;;;;;;55.70;50.13;;;6.60;99.90;;;;;;6277581;22;20015;-92
2023/10/18 08:35:34;;;;;;;70.07;64.05;;;7.40;99.90;;;;;;6277200;22;20003;-91
2023/10/18 08:38:01;;;;;;;64.70;59.40;;;6.90;99.90;;;;;;6277290;22;20370;-91
2023/10/18 08:43:15;;;;;;;73.00;66.57;;;8.10;99.90;;;;;;6303698;22;20004;-90
2023/10/18 08:45:47;;;;;;;79.20;72.75;;;7.10;99.90;;;;;;6277958;22;20249;-90
2023/10/18 08:48:27;;;;;;;81.97;75.72;;;7.10;99.90;;;;;;6277422;22;20011;-91
2023/10/18 08:50:59;;;;;;;88.25;81.55;;;7.20;99.90;;;;;;6278433;22;20019;-91
2023/10/18 08:53:26;;;;;;;78.05;72.15;;;7.30;99.90;;;;;;6277681;22;20015;-90
2023/10/18 08:55:57;;;;;;;52.78;48.30;;;7.30;99.90;;;;;;6276636;22;20015;-89
2023/10/18 08:58:30;;;;;;;70.53;65.05;;;8.00;99.90;;;;;;6277324;22;20022;-90
2023/10/18 09:03:27;;;;;;;83.15;76.50;;;8.00;99.90;;;;;;6302954;22;20015;-90
2023/10/18 09:06:04;;;;;;;70.13;64.18;;;7.60;99.90;;;;;;6277665;22;20015;-91
2023/10/18 09:08:38;;;;;;;50.30;45.83;;;7.90;99.90;;;;;;6277119;22;19999;-91
2023/10/18 09:11:05;;;;;;;76.35;70.63;;;7.70;99.90;;;;;;6277247;22;20023;-91
2023/10/18 09:13:41;;;;;;;68.57;62.97;;;8.30;99.90;;;;;;6276665;22;20015;-91
2023/10/18 09:16:11;;;;;;;68.30;63.25;;;8.40;99.90;;;;;;6277981;22;20062;-90
2023/10/18 09:18:38;;;;;;;59.65;54.85;;;7.80;99.90;;;;;;6277995;22;20015;-91
2023/10/18 09:21:17;;;;;;;66.20;60.90;;;7.80;99.90;;;;;;6278935;22;20049;-90
2023/10/18 09:23:44;;;;;;;56.35;51.67;;;7.90;99.90;;;;;;6278637;22;20019;-91
2023/10/18 09:26:11;;;;;;;65.20;59.85;;;8.00;99.90;;;;;;6279512;22;20050;-90
2023/10/18 09:28:41;;;;;;;56.33;51.70;;;7.40;99.90;;;;;;6279205;22;20018;-92
2023/10/18 09:31:11;;;;;;;73.47;67.82;;;7.70;99.90;;;;;;6255047;22;20045;-90
2023/10/18 09:33:38;;;;;;;67.05;61.95;;;8.20;99.90;;;;;;6279529;22;20015;-89
2023/10/18 09:36:18;;;;;;;56.00;51.45;;;8.50;99.90;;;;;;6278626;22;20053;-90
2023/10/18 09:38:44;;;;;;;77.97;72.30;;;9.10;99.90;;;;;;6280219;22;20075;-89
2023/10/18 09:41:11;;;;;;;57.50;52.92;;;8.60;99.90;;;;;;6278989;22;20012;-91
2023/10/18 09:43:37;;;;;;;66.53;61.55;;;8.50;99.90;;;;;;6279599;22;20042;-91
2023/10/18 09:46:04;;;;;;;66.10;60.90;;;8.50;99.90;;;;;;6278934;22;20015;-91
2023/10/18 09:48:41;;;;;;;68.70;63.58;;;9.20;99.90;;;;;;6277742;22;20035;-91
2023/10/18 09:51:08;;;;;;;49.40;45.22;;;9.70;99.90;;;;;;6279556;22;20044;-90
2023/10/18 09:53:46;;;;;;;72.65;67.50;;;8.00;99.90;;;;;;6279603;22;20018;-91
2023/10/18 09:56:14;;;;;;;93.78;87.28;;;9.70;99.90;;;;;;6254833;22;20042;-92
2023/10/18 09:58:46;;;;;;;71.30;66.32;;;8.80;99.90;;;;;;6255279;22;20015;-92
2023/10/18 10:01:13;;;;;;;67.03;61.92;;;9.70;99.90;;;;;;6255022;22;20011;-91
2023/10/18 10:03:50;;;;;;;66.90;61.88;;;9.20;99.90;;;;;;6255060;22;20008;-91
2023/10/18 10:06:22;;;;;;;70.03;64.82;;;9.00;99.90;;;;;;6255222;22;20365;-91
2023/10/18 10:09:09;;;;;;;57.67;53.42;;;9.90;99.90;;;;;;6255025;22;20023;-91
2023/10/18 10:11:37;;;;;;;75.60;70.22;;;9.40;99.90;;;;;;6254989;22;20100;-92
2023/10/18 10:14:07;;;;;;;61.22;56.67;;;9.50;99.90;;;;;;6255040;22;20077;-91
2023/10/18 10:16:34;;;;;;;67.95;63.08;;;9.10;99.90;;;;;;6254672;22;20044;-91
2023/10/18 10:19:05;;;;;;;62.40;57.83;;;9.50;99.90;;;;;;6254551;22;20007;-90
2023/10/18 10:21:35;;;;;;;68.93;63.95;;;9.20;99.90;;;;;;6254237;22;20492;-91
2023/10/18 10:24:29;;;;;;;91.47;84.93;;;9.60;99.90;;;;;;6254815;22;20014;-92
2023/10/18 10:26:48;;;;;;;71.35;66.05;;;10.50;99.90;;;;;;6282451;22;20015;-91
2023/10/18 10:31:58;;;;;;;67.90;63.35;;;9.70;99.90;;;;;;6282976;22;20019;-92
2023/10/18 10:34:34;;;;;;;79.55;74.00;;;10.20;99.90;;;;;;6260481;22;20067;-91
2023/10/18 10:37:18;;;;;;;87.38;81.43;;;9.70;99.90;;;;;;6256548;22;20015;-92
2023/10/18 10:39:45;;;;;;;;;;;9.60;99.90;;;;;;6257979;22;20015;-91
2023/10/18 10:42:41;;;;;;;77.90;72.10;;;9.70;99.90;;;;;;6257199;22;19919;-91
2023/10/18 10:45:23;;;;;;;69.20;64.32;;;9.70;99.90;;;;;;6257736;22;20037;-91
2023/10/18 10:47:55;;;;;;;55.33;51.25;;;9.80;99.90;;;;;;6258060;22;20033;-92
2023/10/18 10:50:45;;;;;;;73.22;68.00;;;9.90;99.90;;;;;;6257785;22;20365;-90
2023/10/18 10:53:15;;;;;;;74.05;69.03;;;9.90;99.90;;;;;;6255871;22;20445;-91
2023/10/18 10:55:43;;;;;;;52.90;49.10;;;9.90;99.90;;;;;;6255671;22;20011;-92
2023/10/18 10:58:16;;;;;;;41.92;38.35;;;10.40;99.90;;;;;;6255188;22;20520;-91
2023/10/18 11:01:04;;;;;;;79.65;74.07;;;10.00;99.90;;;;;;6282091;22;20011;-90
2023/10/18 11:03:33;;;;;;;49.25;45.40;;;10.10;99.90;;;;;;6282161;22;20117;-91
2023/10/18 11:06:05;;;;;;;52.08;48.22;;;10.10;99.90;;;;;;6255833;22;20015;-91
2023/10/18 11:08:35;;;;;;;44.72;41.33;;;10.50;99.90;;;;;;6254993;22;20034;-89
2023/10/18 11:11:06;;;;;;;50.85;46.95;;;10.10;99.90;;;;;;6255519;22;20345;-90
2023/10/18 11:13:36;;;;;;;46.90;43.25;;;10.60;99.90;;;;;;6281894;22;20047;-91
2023/10/18 11:16:03;;;;;;;50.60;46.78;;;10.30;99.90;;;;;;6280931;22;20015;-91
2023/10/18 11:18:34;;;;;;;47.70;43.90;;;10.30;99.90;;;;;;6255607;22;20090;-90
2023/10/18 11:21:12;;;;;;;46.08;42.50;;;10.40;99.90;;;;;;6280615;22;20076;-91
2023/10/18 11:23:38;;;;;;;36.08;33.05;;;10.40;99.90;;;;;;6281353;22;20015;-91
2023/10/18 11:26:09;;;;;;;38.75;35.47;;;10.00;99.90;;;;;;6281036;22;20110;-91
2023/10/18 11:28:37;;;;;;;60.33;56.20;;;10.70;99.90;;;;;;6281288;22;20011;-91
2023/10/18 11:31:04;;;;;;;35.15;31.83;;;10.70;99.90;;;;;;6281383;22;20015;-91
2023/10/18 11:33:46;;;;;;;41.13;37.78;;;11.20;99.90;;;;;;6255616;22;20015;-92
2023/10/18 11:36:18;;;;;;;31.02;28.33;;;11.50;99.90;;;;;;6255328;22;20019;-91
2023/10/18 11:39:07;;;;;;;37.05;34.10;;;10.90;99.90;;;;;;6255789;22;20098;-92
2023/10/18 11:41:35;;;;;;;31.83;29.00;;;11.70;99.90;;;;;;6281759;22;20023;-91
2023/10/18 11:44:07;;;;;;;37.60;34.72;;;11.10;99.90;;;;;;6255198;22;20011;-91
2023/10/18 11:46:58;;;;;;;43.50;40.10;;;11.10;99.90;;;;;;6254910;22;20019;-91
2023/10/18 11:49:37;;;;;;;28.60;26.05;;;11.00;99.90;;;;;;6255232;22;20007;-91
2023/10/18 11:52:03;;;;;;;40.63;37.53;;;11.30;99.90;;;;;;6255112;22;20023;-91
2023/10/18 11:54:31;;;;;;;40.70;37.45;;;11.20;99.90;;;;;;6275333;22;20011;-91
2023/10/18 11:56:59;;;;;;;40.53;37.33;;;11.30;99.90;;;;;;6264796;22;20011;-91
2023/10/18 11:59:26;;;;;;;32.13;29.45;;;11.60;99.90;;;;;;6265546;22;20046;-92
2023/10/18 12:01:57;;;;;;;36.95;33.83;;;11.30;99.90;;;;;;6265495;22;20517;-91
2023/10/18 12:04:27;;;;;;;20.23;17.20;;;11.40;99.90;;;;;;6265959;22;20444;-91
2023/10/18 12:06:56;;;;;;;29.98;27.45;;;11.30;99.90;;;;;;6265717;22;20039;-91
2023/10/18 12:11:52;;;;;;;32.22;29.60;;;11.70;99.90;;;;;;6290827;22;20338;-92
2023/10/18 12:14:18;;;;;;;28.23;25.70;;;11.60;99.90;;;;;;6253682;22;20054;-88
2023/10/18 12:16:44;;;;;;;28.48;25.92;;;11.50;99.90;;;;;;6303940;22;20470;-89
2023/10/18 12:19:14;;;;;;;22.90;20.70;;;11.50;99.90;;;;;;6304525;22;20047;-91
2023/10/18 12:21:40;;;;;;;23.10;20.17;;;11.60;99.90;;;;;;6304167;22;20012;-90
2023/10/18 12:24:07;;;;;;;21.80;19.73;;;11.60;99.90;;;;;;6304205;22;19995;-89
2023/10/18 12:26:34;;;;;;;22.10;19.95;;;11.60;99.90;;;;;;6278984;22;20064;-90
2023/10/18 12:29:04;;;;;;;35.55;32.88;;;11.70;99.90;;;;;;6278829;22;20011;-90
2023/10/18 12:31:43;;;;;;;29.70;27.25;;;11.70;99.90;;;;;;6278893;22;20011;-91
2023/10/18 12:34:14;;;;;;;32.92;30.45;;;12.00;99.90;;;;;;6304374;22;20015;-91
2023/10/18 12:36:40;;;;;;;26.90;24.38;;;11.80;99.90;;;;;;6303887;22;20015;-90
2023/10/18 12:39:09;;;;;;;20.17;16.80;;;11.80;99.90;;;;;;6304508;22;20022;-88
2023/10/18 12:41:41;;;;;;;24.75;22.45;;;11.90;99.90;;;;;;6279187;22;20003;-89
2023/10/18 12:44:11;;;;;;;22.58;20.33;;;11.90;99.90;;;;;;6278976;22;20019;-91
2023/10/18 12:46:38;;;;;;;26.00;23.65;;;11.90;99.90;;;;;;6304175;22;20014;-91
2023/10/18 12:49:05;;;;;;;52.30;48.47;;;11.90;99.90;;;;;;6303737;22;20041;-90
2023/10/18 12:51:31;;;;;;;37.85;35.03;;;11.80;99.90;;;;;;6279827;22;20003;-92
2023/10/18 12:54:04;;;;;;;28.25;26.02;;;11.80;99.90;;;;;;6306267;22;20011;-90
2023/10/18 12:59:53;;;;;;;26.83;24.25;;;12.10;99.90;;;;;;6306564;22;20026;-90
2023/10/18 13:01:43;;;;;;;23.33;21.00;;;11.80;99.90;;;;;;6294951;22;20029;-91
2023/10/18 13:04:17;;;;;;;24.15;21.85;;;12.00;99.90;;;;;;6280661;22;20015;-90
2023/10/18 13:06:45;;;;;;;16.77;14.30;;;11.80;99.90;;;;;;6306214;22;20191;-89
2023/10/18 13:14:24;;;;;;;28.15;25.85;;;11.80;99.90;;;;;;6307078;22;20019;-90
2023/10/18 13:16:54;;;;;;;32.75;30.08;;;11.80;99.90;;;;;;6280804;22;20045;-91
2023/10/18 13:19:20;;;;;;;26.85;24.55;;;11.80;99.90;;;;;;6255024;22;20015;-90
2023/10/18 13:21:47;;;;;;;53.55;49.78;;;11.70;99.90;;;;;;6306124;22;20026;-91
2023/10/18 13:24:17;;;;;;;30.27;27.58;;;11.50;99.90;;;;;;6279796;22;20110;-91
2023/10/18 13:26:47;;;;;;;33.13;30.42;;;11.80;99.90;;;;;;6280803;22;20025;-91
2023/10/18 13:29:29;;;;;;;32.35;29.70;;;11.40;99.90;;;;;;6280773;22;20060;-91
2023/10/18 13:31:58;;;;;;;23.25;20.90;;;11.80;99.90;;;;;;6281071;22;20063;-91
2023/10/18 13:34:32;;;;;;;22.90;20.70;;;12.30;99.90;;;;;;6306425;22;20017;-91
2023/10/18 13:36:59;;;;;;;25.27;23.02;;;11.80;99.90;;;;;;6280278;22;20011;-92
2023/10/18 13:39:27;;;;;;;21.80;19.70;;;11.90;99.90;;;;;;6280402;22;20080;-92
2023/10/18 13:41:54;;;;;;;29.63;26.88;;;11.90;99.90;;;;;;6280331;22;20015;-92
2023/10/18 13:44:22;;;;;;;22.60;20.45;;;12.50;99.90;;;;;;6306565;22;20022;-91
2023/10/18 13:47:08;;;;;;;28.55;25.95;;;12.00;99.90;;;;;;6279543;22;20011;-90
2023/10/18 13:49:33;;;;;;;34.53;31.58;;;12.20;99.90;;;;;;6305708;22;20015;-92
2023/10/18 13:51:59;;;;;;;37.28;34.40;;;12.30;99.90;;;;;;6305354;22;20021;-91
2023/10/18 13:54:26;;;;;;;79.72;73.00;;;12.40;99.90;;;;;;6305387;22;20007;-89
2023/10/18 13:56:53;;;;;;;27.08;24.50;;;12.40;99.90;;;;;;6253861;22;20074;-90
2023/10/18 13:59:19;;;;;;;22.55;17.63;;;12.60;99.90;;;;;;6304955;22;20040;-91
2023/10/18 14:01:49;;;;;;;24.35;22.02;;;12.30;99.90;;;;;;6304736;22;20011;-90
2023/10/18 14:04:19;;;;;;;16.08;11.88;;;12.30;99.90;;;;;;6305092;22;20003;-88